Time;durP1;ratioP1;P1;durP2;ratioP2;P2;SDS_P1;SDS_P2;PMS_P1;PMS_P2;Temp;Humidity;BMP_temperature;BMP_pressure;BME280_temperature;BME280_humidity;BME280_pressure;Samples;Min_cycle;Max_cycle;Signal;HPM_P1;HPM_P2
2021/06/07 00:02:07;;;;;;;;;1.33;1.33;;;;;21.33;49.52;98740.78;4906891;28;102472;-92
2021/06/07 00:04:34;;;;;;;;;2.00;2.00;;;;;21.30;49.59;98735.78;4887978;28;104097;-92
2021/06/07 00:07:03;;;;;;;;;1.00;1.00;;;;;21.31;49.51;98739.38;4890420;28;102451;-92
2021/06/07 00:09:30;;;;;;;;;2.00;2.00;;;;;21.31;49.30;98742.94;4900404;28;102200;-92
2021/06/07 00:12:00;;;;;;;;;2.00;1.00;;;;;21.29;49.65;98745.16;4899154;28;104046;-92
2021/06/07 00:14:29;;;;;;;;;2.00;2.00;;;;;21.30;49.64;98733.03;4848584;28;104401;-92
2021/06/07 00:16:56;;;;;;;;;1.00;1.00;;;;;21.28;49.58;98739.91;4894939;28;104277;-92
2021/06/07 00:19:24;;;;;;;;;0.67;0.67;;;;;21.27;49.75;98739.06;4901062;28;102327;-92
2021/06/07 00:21:55;;;;;;;;;1.67;1.67;;;;;21.27;49.17;98736.31;4868653;28;102514;-91
2021/06/07 00:24:31;;;;;;;;;1.67;1.67;;;;;21.26;49.47;98736.59;4892815;28;103212;-92
2021/06/07 00:27:08;;;;;;;;;2.00;2.00;;;;;21.24;49.31;98733.28;4909081;28;104486;-92
2021/06/07 00:29:41;;;;;;;;;1.33;1.33;;;;;21.26;49.51;98729.16;4905501;28;102438;-92
2021/06/07 00:32:16;;;;;;;;;1.00;1.00;;;;;21.25;49.60;98734.94;4893404;28;103335;-92
2021/06/07 00:34:49;;;;;;;;;2.00;2.00;;;;;21.24;49.39;98731.38;4911295;28;109003;-91
2021/06/07 00:37:26;;;;;;;;;1.33;1.33;;;;;21.25;49.71;98732.19;4876392;28;103825;-92
2021/06/07 00:40:00;;;;;;;;;2.00;2.00;;;;;21.23;49.37;98735.22;4867499;28;102943;-91
2021/06/07 00:42:33;;;;;;;;;2.67;1.00;;;;;21.23;49.64;98735.22;4880494;28;103128;-91
2021/06/07 00:45:05;;;;;;;;;1.00;1.00;;;;;21.21;49.98;98726.38;4884644;28;104138;-92
2021/06/07 00:47:39;;;;;;;;;2.00;1.00;;;;;21.22;49.24;98732.72;4896417;28;103213;-92
2021/06/07 00:50:26;;;;;;;;;2.00;2.00;;;;;21.21;49.71;98736.56;4879126;28;102610;-92
2021/06/07 00:53:05;;;;;;;;;1.00;1.00;;;;;21.21;49.57;98731.06;4806134;28;102240;-92
2021/06/07 00:55:54;;;;;;;;;0.67;0.67;;;;;21.20;49.52;98734.91;4885714;28;104283;-91
2021/06/07 00:58:39;;;;;;;;;2.00;2.00;;;;;21.19;49.82;98739.59;4824246;28;102419;-92
2021/06/07 01:01:21;;;;;;;;;1.00;1.00;;;;;21.18;49.57;98737.91;4896871;28;102682;-91
2021/06/07 01:03:58;;;;;;;;;1.00;1.00;;;;;21.17;49.40;98730.75;4884560;28;102288;-91
2021/06/07 01:06:37;;;;;;;;;1.67;1.00;;;;;21.17;49.31;98733.50;4894468;28;103108;-92
2021/06/07 01:09:13;;;;;;;;;2.00;1.00;;;;;21.17;49.50;98736.25;4889344;28;103251;-92
2021/06/07 01:11:47;;;;;;;;;1.00;1.00;;;;;21.16;50.00;98740.13;4892870;28;102644;-91
2021/06/07 01:14:20;;;;;;;;;2.00;2.00;;;;;21.16;49.50;98734.63;4888231;28;103887;-92
2021/06/07 01:17:06;;;;;;;;;1.00;1.00;;;;;21.16;49.71;98734.63;4875924;28;107759;-91
2021/06/07 01:19:40;;;;;;;;;2.00;1.00;;;;;21.14;49.82;98731.31;4851751;28;103098;-92
2021/06/07 01:22:13;;;;;;;;;1.33;1.33;;;;;21.15;49.67;98732.97;4895561;28;102631;-92
2021/06/07 01:24:47;;;;;;;;;1.33;1.33;;;;;21.13;49.95;98735.13;4873078;28;102190;-91
2021/06/07 01:27:21;;;;;;;;;2.00;1.33;;;;;21.14;49.80;98724.97;4875047;28;105341;-92
2021/06/07 01:29:53;;;;;;;;;2.00;1.00;;;;;21.12;49.90;98730.69;4894915;28;104599;-91
2021/06/07 01:32:29;;;;;;;;;2.00;2.00;;;;;21.12;49.74;98733.44;4882183;28;102284;-91
2021/06/07 01:35:07;;;;;;;;;2.00;2.00;;;;;21.11;49.87;98748.31;4865554;28;102268;-91
2021/06/07 01:37:38;;;;;;;;;2.00;1.33;;;;;21.10;49.99;98738.41;4884011;28;103379;-91
2021/06/07 01:40:19;;;;;;;;;2.00;1.00;;;;;21.09;49.74;98727.66;4887054;28;103878;-91
2021/06/07 01:42:53;;;;;;;;;1.00;1.00;;;;;21.11;50.02;98740.06;4892518;28;104136;-91
2021/06/07 01:45:29;;;;;;;;;1.00;1.00;;;;;21.09;49.61;98741.41;4902160;28;104132;-91
2021/06/07 01:48:04;;;;;;;;;2.00;2.00;;;;;21.07;49.52;98736.19;4884163;28;103115;-92
2021/06/07 01:50:34;;;;;;;;;1.33;1.33;;;;;21.08;49.43;98743.31;4899639;28;103613;-92
2021/06/07 01:53:14;;;;;;;;;1.67;1.00;;;;;21.06;49.53;98737.28;4897371;28;102956;-92
2021/06/07 01:55:53;;;;;;;;;1.00;1.00;;;;;21.06;50.12;98736.44;4909618;28;102614;-92
2021/06/07 01:58:25;;;;;;;;;1.33;1.33;;;;;21.01;49.99;98725.41;4907396;28;108460;-92
2021/06/07 02:01:12;;;;;;;;;1.33;1.33;;;;;21.06;49.62;98736.44;4875000;28;104018;-92
2021/06/07 02:03:50;;;;;;;;;2.00;1.00;;;;;21.03;49.97;98735.03;4903602;28;102508;-91
2021/06/07 02:06:27;;;;;;;;;1.33;1.33;;;;;21.03;49.97;98740.53;4887615;28;102239;-92
2021/06/07 02:09:02;;;;;;;;;2.00;2.00;;;;;21.01;50.13;98731.75;4851055;28;107885;-92
2021/06/07 02:11:34;;;;;;;;;0.67;0.00;;;;;21.02;50.05;98730.66;4888260;28;102580;-91
2021/06/07 02:14:09;;;;;;;;;1.00;1.00;;;;;21.02;49.74;98727.06;4905588;28;103669;-92
2021/06/07 02:16:43;;;;;;;;;1.00;1.00;;;;;21.00;49.90;98730.06;4901450;28;102410;-92
2021/06/07 02:19:19;;;;;;;;;1.00;1.00;;;;;20.99;50.12;98733.91;4902584;28;107368;-91
2021/06/07 02:21:55;;;;;;;;;2.00;1.33;;;;;20.98;49.50;98725.94;4905227;28;102149;-92
2021/06/07 02:24:31;;;;;;;;;3.00;3.00;;;;;20.97;49.87;98732.53;4912281;28;102307;-92
2021/06/07 02:27:08;;;;;;;;;2.00;2.00;;;;;20.97;49.65;98733.38;4912404;28;108525;-92
2021/06/07 02:29:46;;;;;;;;;1.00;1.00;;;;;20.96;50.17;98734.47;4904088;28;104291;-92
2021/06/07 02:32:22;;;;;;;;;1.33;1.33;;;;;20.96;50.08;98728.97;4909163;28;102395;-92
2021/06/07 02:34:54;;;;;;;;;2.00;2.00;;;;;20.94;49.59;98734.72;4892255;28;102674;-92
2021/06/07 02:37:30;;;;;;;;;2.00;1.00;;;;;20.95;50.05;98735.53;4903680;28;102787;-92
2021/06/07 02:40:11;;;;;;;;;2.00;2.00;;;;;20.94;50.15;98731.13;4881764;28;104254;-93
2021/06/07 02:42:49;;;;;;;;;1.00;1.00;;;;;20.92;49.82;98730.59;4891070;28;102146;-92
2021/06/07 02:45:20;;;;;;;;;1.00;1.00;;;;;20.91;49.64;98726.16;4891992;28;102168;-91
2021/06/07 02:47:53;;;;;;;;;0.67;0.67;;;;;20.92;49.61;98728.66;4907465;28;102392;-92
2021/06/07 02:50:32;;;;;;;;;2.00;1.67;;;;;20.92;50.02;98730.59;4905749;28;106556;-92
2021/06/07 02:53:06;;;;;;;;;1.50;1.50;;;;;20.90;49.79;98730.00;4832207;28;103273;-91
2021/06/07 02:55:43;;;;;;;;;2.00;2.00;;;;;20.89;49.84;98734.66;4902782;28;103815;-92
2021/06/07 02:58:14;;;;;;;;;1.00;1.00;;;;;20.90;49.98;98738.25;4908559;28;102174;-92
2021/06/07 03:00:58;;;;;;;;;2.00;1.00;;;;;20.88;49.66;98732.22;4906383;28;103160;-92
2021/06/07 03:03:36;;;;;;;;;2.00;2.00;;;;;20.88;49.77;98733.03;4845232;28;103711;-92
2021/06/07 03:06:13;;;;;;;;;3.67;2.00;;;;;20.88;50.11;98743.19;4905199;28;103703;-92
2021/06/07 03:08:44;;;;;;;;;3.00;3.00;;;;;20.87;49.96;98730.53;4887647;28;102456;-92
2021/06/07 03:11:18;;;;;;;;;2.00;1.00;;;;;20.86;50.16;98728.88;4904638;28;103357;-91
2021/06/07 03:13:51;;;;;;;;;1.33;1.33;;;;;20.85;49.78;98739.03;4906307;28;102726;-92
2021/06/07 03:16:18;;;;;;;;;2.00;2.00;;;;;20.86;50.15;98739.88;4910122;28;102490;-92
2021/06/07 03:18:45;;;;;;;;;2.00;2.00;;;;;20.83;49.98;98740.41;4907762;28;103117;-92
2021/06/07 03:21:12;;;;;;;;;2.00;2.00;;;;;20.85;50.23;98733.53;4895254;28;103559;-92
2021/06/07 03:23:40;;;;;;;;;2.00;2.00;;;;;20.84;50.26;98747.56;4903287;28;103500;-92
2021/06/07 03:26:07;;;;;;;;;2.00;2.00;;;;;20.83;50.09;98744.00;4899884;28;102297;-92
2021/06/07 03:28:34;;;;;;;;;1.00;1.00;;;;;20.83;50.20;98749.50;4901682;28;102516;-92
2021/06/07 03:31:02;;;;;;;;;3.00;2.00;;;;;20.81;49.59;98745.34;4909852;28;104194;-93
2021/06/07 03:33:29;;;;;;;;;2.00;1.00;;;;;20.82;49.80;98744.25;4894905;28;102273;-92
2021/06/07 03:35:56;;;;;;;;;2.33;2.33;;;;;20.82;49.98;98741.50;4890102;28;102342;-93
2021/06/07 03:38:25;;;;;;;;;1.67;1.67;;;;;20.81;49.63;98739.84;4888839;28;104190;-92
2021/06/07 03:40:54;;;;;;;;;2.00;2.00;;;;;20.80;49.73;98740.94;4892618;28;108769;-92
2021/06/07 03:43:26;;;;;;;;;3.00;2.00;;;;;20.83;50.05;98743.16;4902450;28;103464;-92
2021/06/07 03:45:53;;;;;;;;;1.67;1.67;;;;;20.81;49.72;98746.16;4913419;28;102820;-92
2021/06/07 03:48:21;;;;;;;;;2.00;2.00;;;;;20.80;50.04;98752.75;4901246;28;103533;-92
2021/06/07 03:50:48;;;;;;;;;2.00;2.00;;;;;20.81;49.59;98753.56;4908238;28;104201;-92
2021/06/07 03:53:16;;;;;;;;;3.00;3.00;;;;;20.80;50.19;98752.75;4906297;28;104321;-92
2021/06/07 03:55:43;;;;;;;;;2.00;2.00;;;;;20.80;49.99;98761.00;4892803;28;102743;-92
2021/06/07 03:58:10;;;;;;;;;2.00;2.00;;;;;20.79;50.28;98758.53;4900040;28;103116;-92
2021/06/07 04:00:40;;;;;;;;;2.00;2.00;;;;;20.79;49.73;98769.53;4911822;28;104493;-92
2021/06/07 04:03:08;;;;;;;;;1.67;1.67;;;;;20.78;50.30;98759.59;4886079;28;102202;-92
2021/06/07 04:05:36;;;;;;;;;2.00;2.00;;;;;20.78;49.73;98760.44;4886586;28;102040;-92
2021/06/07 04:08:04;;;;;;;;;1.67;1.33;;;;;20.78;50.27;98765.09;4903499;28;102627;-92
2021/06/07 04:10:31;;;;;;;;;2.00;2.00;;;;;20.78;49.85;98774.19;4913084;28;104094;-92
2021/06/07 04:12:58;;;;;;;;;1.00;1.00;;;;;20.76;49.96;98767.28;4904537;28;102270;-92
2021/06/07 04:15:27;;;;;;;;;2.00;2.00;;;;;20.77;50.32;98769.78;4905849;28;102896;-90
2021/06/07 04:17:55;;;;;;;;;2.00;2.00;;;;;20.78;50.03;98776.09;4917321;28;103939;-92
2021/06/07 04:20:27;;;;;;;;;2.33;2.33;;;;;20.76;50.47;98768.09;4885794;28;108882;-92
2021/06/07 04:22:55;;;;;;;;;2.00;2.00;;;;;20.78;50.33;98773.34;4889104;28;102168;-92
2021/06/07 04:25:23;;;;;;;;;2.00;1.67;;;;;20.77;50.23;98768.94;4893580;28;102174;-92
2021/06/07 04:27:51;;;;;;;;;2.00;2.00;;;;;20.77;50.05;98766.19;4902918;28;102304;-92
2021/06/07 04:30:19;;;;;;;;;1.00;1.00;;;;;20.77;49.86;98763.44;4907236;28;104623;-92
2021/06/07 04:32:47;;;;;;;;;3.00;3.00;;;;;20.73;50.05;98767.81;4914916;28;102272;-91
2021/06/07 04:35:14;;;;;;;;;3.00;2.00;;;;;20.76;50.31;98775.53;4909279;28;104067;-92
2021/06/07 04:37:52;;;;;;;;;1.67;1.67;;;;;20.78;49.96;98773.34;4907209;28;102600;-92
2021/06/07 04:40:21;;;;;;;;;2.00;2.00;;;;;20.78;50.13;98776.09;4888845;28;104077;-92
2021/06/07 04:42:49;;;;;;;;;2.00;2.00;;;;;20.78;49.63;98776.09;4912476;28;102346;-91
2021/06/07 04:45:16;;;;;;;;;2.67;2.67;;;;;20.78;49.92;98765.09;4901321;28;102791;-92
2021/06/07 04:47:45;;;;;;;;;2.67;2.00;;;;;20.78;49.99;98771.44;4911152;28;102632;-92
2021/06/07 04:50:13;;;;;;;;;3.00;2.33;;;;;20.79;50.04;98769.53;4894444;28;104864;-92
2021/06/07 04:55:33;;;;;;;;;1.00;1.00;;;;;20.81;49.49;98781.06;4889528;28;103067;-91
2021/06/07 04:58:02;;;;;;;;;1.00;1.00;;;;;20.80;49.66;98780.22;4910259;28;102377;-91
2021/06/07 05:00:29;;;;;;;;;2.00;2.00;;;;;20.79;49.58;98772.28;4906399;28;104049;-91
2021/06/07 05:02:57;;;;;;;;;2.00;2.00;;;;;20.71;49.74;98767.25;4913255;28;102279;-92
2021/06/07 05:05:24;;;;;;;;;2.00;2.00;;;;;20.80;49.55;98773.94;4915594;28;104768;-92
2021/06/07 05:07:52;;;;;;;;;2.00;2.00;;;;;20.80;50.14;98776.69;4888620;28;103161;-93
2021/06/07 05:10:19;;;;;;;;;2.00;2.00;;;;;20.82;49.43;98778.06;4907154;28;104088;-92
2021/06/07 05:12:46;;;;;;;;;2.00;1.33;;;;;20.83;49.84;98781.63;4906845;28;103677;-92
2021/06/07 05:15:14;;;;;;;;;2.00;2.00;;;;;20.83;49.30;98778.91;4886782;28;102979;-92
2021/06/07 05:17:41;;;;;;;;;1.67;1.67;;;;;20.82;49.42;98777.22;4905455;28;103781;-92
2021/06/07 05:20:11;;;;;;;;;3.00;2.00;;;;;20.84;49.61;98778.66;4890572;28;104426;-92
2021/06/07 05:22:38;;;;;;;;;3.00;2.00;;;;;20.84;49.35;98777.81;4898339;28;106390;-92
2021/06/07 05:25:06;;;;;;;;;0.67;0.67;;;;;20.85;49.34;98784.94;4892882;28;102494;-92
2021/06/07 05:27:33;;;;;;;;;1.00;1.00;;;;;20.85;49.54;98787.69;4906666;28;102626;-93
2021/06/07 05:30:02;;;;;;;;;1.33;1.33;;;;;20.86;49.32;98783.84;4887730;28;103988;-90
2021/06/07 05:32:29;;;;;;;;;2.00;2.00;;;;;20.86;49.33;98789.34;4909170;28;102463;-92
2021/06/07 05:34:56;;;;;;;;;1.00;1.00;;;;;20.87;49.58;98791.84;4912441;28;102804;-91
2021/06/07 05:37:28;;;;;;;;;1.33;1.33;;;;;20.87;49.41;98788.25;4905178;28;102874;-92
2021/06/07 05:39:55;;;;;;;;;2.00;1.00;;;;;20.88;49.35;98788.00;4901539;28;109185;-92
2021/06/07 05:42:22;;;;;;;;;2.00;2.00;;;;;20.88;49.52;98796.25;4915446;28;102237;-92
2021/06/07 05:44:49;;;;;;;;;2.00;2.00;;;;;20.89;49.68;98786.09;4913941;28;103115;-91
2021/06/07 05:47:17;;;;;;;;;1.00;1.00;;;;;20.89;49.28;98795.16;4904096;28;102186;-92
2021/06/07 05:49:44;;;;;;;;;1.00;1.00;;;;;20.90;49.28;98796.81;4906032;28;104130;-92
2021/06/07 05:52:11;;;;;;;;;2.33;2.00;;;;;20.90;49.32;98793.22;4907034;28;104413;-92
2021/06/07 05:54:39;;;;;;;;;1.00;1.00;;;;;20.93;49.61;98795.47;4887608;28;102767;-92
2021/06/07 05:57:07;;;;;;;;;3.00;2.00;;;;;20.93;49.22;98795.47;4911463;28;103610;-91
2021/06/07 05:59:37;;;;;;;;;1.00;1.00;;;;;20.94;49.16;98797.09;4906052;28;104069;-92
2021/06/07 06:02:05;;;;;;;;;2.00;2.00;;;;;20.94;49.18;98795.19;4902855;28;105548;-93
2021/06/07 06:04:33;;;;;;;;;1.00;1.00;;;;;20.95;49.12;98796.03;4904549;28;103770;-91
2021/06/07 06:07:00;;;;;;;;;3.00;1.67;;;;;20.96;49.23;98799.59;4906853;28;104119;-92
2021/06/07 06:09:28;;;;;;;;;1.67;1.67;;;;;20.97;49.28;98798.53;4907356;28;110362;-92
2021/06/07 06:11:56;;;;;;;;;2.00;2.00;;;;;20.96;49.51;98800.44;4903518;28;104306;-92
2021/06/07 06:14:24;;;;;;;;;1.00;1.00;;;;;20.96;49.25;98800.44;4892758;28;102520;-93
2021/06/07 06:16:52;;;;;;;;;1.67;1.67;;;;;20.96;49.40;98794.94;4889989;28;104107;-92
2021/06/07 06:19:19;;;;;;;;;1.00;1.00;;;;;20.95;49.09;98798.78;4902018;28;103805;-92
2021/06/07 06:21:46;;;;;;;;;2.00;2.00;;;;;20.96;49.28;98800.44;4886044;28;102218;-92
2021/06/07 06:24:13;;;;;;;;;1.00;1.00;;;;;20.96;49.43;98805.94;4902401;28;102459;-93
2021/06/07 06:26:41;;;;;;;;;1.67;1.67;;;;;20.95;49.07;98815.25;4885304;28;105477;-92
2021/06/07 06:29:08;;;;;;;;;1.00;1.00;;;;;20.98;49.12;98801.00;4889369;28;104071;-92
2021/06/07 06:31:35;;;;;;;;;2.00;2.00;;;;;20.97;49.57;98795.78;4901584;28;102150;-91
2021/06/07 06:34:02;;;;;;;;;1.00;1.00;;;;;20.97;49.60;98804.84;4887667;28;102459;-92
2021/06/07 06:36:30;;;;;;;;;1.33;1.33;;;;;20.98;49.03;98803.75;4898690;28;102829;-92
2021/06/07 06:38:57;;;;;;;;;2.33;2.33;;;;;20.97;48.90;98801.28;4886003;28;108791;-92
2021/06/07 06:41:24;;;;;;;;;2.00;1.67;;;;;20.98;49.43;98812.00;4914823;28;103483;-91
2021/06/07 06:43:52;;;;;;;;;1.00;1.00;;;;;20.98;49.23;98812.00;4917921;28;102130;-92
2021/06/07 06:46:19;;;;;;;;;1.67;1.67;;;;;20.98;49.15;98812.00;4908409;28;102138;-91
2021/06/07 06:48:47;;;;;;;;;2.00;2.00;;;;;20.98;49.13;98817.50;4903955;28;103768;-91
2021/06/07 06:51:14;;;;;;;;;2.00;2.00;;;;;20.99;49.31;98818.31;4887062;28;102484;-91
2021/06/07 06:53:41;;;;;;;;;1.67;1.00;;;;;20.98;49.50;98820.25;4908632;28;102523;-92
2021/06/07 06:56:08;;;;;;;;;2.00;2.00;;;;;21.00;49.38;98811.72;4905874;28;102189;-92
2021/06/07 06:58:35;;;;;;;;;0.00;0.00;;;;;20.99;48.94;98810.91;4917589;28;105203;-92
2021/06/07 07:01:03;;;;;;;;;1.00;1.00;;;;;21.01;49.00;98813.38;4906633;28;102250;-92
2021/06/07 07:03:30;;;;;;;;;2.00;1.00;;;;;21.01;49.05;98819.72;4901525;28;102753;-92
2021/06/07 07:05:57;;;;;;;;;2.00;1.00;;;;;21.02;49.24;98815.88;4907471;28;102799;-92
2021/06/07 07:08:25;;;;;;;;;1.00;1.00;;;;;20.99;48.86;98816.41;4903407;28;104152;-91
2021/06/07 07:10:53;;;;;;;;;1.00;1.00;;;;;21.03;49.00;98823.03;4903759;28;103201;-92
2021/06/07 07:13:20;;;;;;;;;2.00;2.00;;;;;21.03;49.26;98823.03;4910608;28;102193;-92
2021/06/07 07:15:47;;;;;;;;;2.00;2.00;;;;;21.03;49.11;98823.03;4908867;28;102185;-92
2021/06/07 07:18:14;;;;;;;;;1.67;1.00;;;;;21.05;49.29;98820.84;4888747;28;104132;-92
2021/06/07 07:20:42;;;;;;;;;2.33;1.00;;;;;21.04;49.14;98824.69;4908371;28;105216;-92
2021/06/07 07:23:09;;;;;;;;;1.00;1.00;;;;;21.03;49.28;98828.53;4893967;28;102307;-92
2021/06/07 07:25:36;;;;;;;;;1.00;1.00;;;;;21.04;48.91;98835.69;4909525;28;102756;-91
2021/06/07 07:28:04;;;;;;;;;1.00;1.00;;;;;21.04;49.31;98824.69;4912631;28;104106;-92
2021/06/07 07:30:32;;;;;;;;;0.67;0.67;;;;;21.05;49.04;98826.34;4901247;28;105585;-90
2021/06/07 07:32:59;;;;;;;;;1.67;1.00;;;;;21.06;49.19;98827.19;4890830;28;103469;-91
2021/06/07 07:35:27;;;;;;;;;1.00;1.00;;;;;21.06;48.68;98822.50;4899751;28;102283;-92
2021/06/07 07:37:54;;;;;;;;;2.00;2.00;;;;;21.08;49.05;98835.97;4886566;28;104030;-92
2021/06/07 07:40:22;;;;;;;;;1.33;1.00;;;;;21.08;49.08;98827.72;4905856;28;102655;-92
2021/06/07 07:42:51;;;;;;;;;1.33;1.00;;;;;21.09;48.84;98821.16;4914424;28;102683;-92
2021/06/07 07:45:19;;;;;;;;;1.00;1.00;;;;;21.08;48.85;98831.31;4912202;28;102430;-92
2021/06/07 07:47:46;;;;;;;;;1.67;1.67;;;;;21.09;49.35;98826.66;4901950;28;104072;-92
2021/06/07 07:50:16;;;;;;;;;1.00;1.00;;;;;21.08;49.07;98823.06;4910458;28;102359;-92
2021/06/07 07:52:43;;;;;;;;;2.00;2.00;;;;;21.08;48.75;98831.31;4916312;28;102537;-92
2021/06/07 07:55:12;;;;;;;;;1.33;1.33;;;;;21.10;48.91;98826.41;4901546;28;102194;-92
2021/06/07 07:57:41;;;;;;;;;0.67;0.67;;;;;21.11;48.89;98828.06;4911643;28;104263;-91
2021/06/07 08:00:09;;;;;;;;;2.33;2.00;;;;;21.11;49.13;98829.97;4917821;28;102508;-92
2021/06/07 08:02:36;;;;;;;;;1.00;1.00;;;;;21.10;48.75;98818.16;4903726;28;102379;-92
2021/06/07 08:05:05;;;;;;;;;0.00;0.00;;;;;21.12;49.08;98820.63;4906901;28;102425;-91
2021/06/07 08:07:32;;;;;;;;;1.00;1.00;;;;;21.13;48.87;98825.06;4913815;28;104109;-92
2021/06/07 08:10:00;;;;;;;;;0.33;0.33;;;;;21.12;49.32;98815.94;4907432;28;102102;-92
2021/06/07 08:12:27;;;;;;;;;1.00;1.00;;;;;21.14;48.75;98818.47;4903634;28;102138;-92
2021/06/07 08:14:55;;;;;;;;;1.00;1.00;;;;;21.13;49.27;98812.13;4910168;28;102239;-91
2021/06/07 08:17:22;;;;;;;;;2.00;2.00;;;;;21.15;48.88;98820.13;4898777;28;104083;-91
2021/06/07 08:19:49;;;;;;;;;0.67;0.67;;;;;21.14;48.96;98819.31;4889299;28;102857;-92
2021/06/07 08:22:19;;;;;;;;;0.33;0.33;;;;;21.15;48.78;98826.47;4913806;28;102377;-92
2021/06/07 08:24:47;;;;;;;;;1.00;1.00;;;;;21.15;49.07;98825.63;4905503;28;102293;-93
2021/06/07 08:27:14;;;;;;;;;1.00;1.00;;;;;21.14;48.60;98824.81;4883399;28;104169;-91
2021/06/07 08:29:41;;;;;;;;;1.00;1.00;;;;;21.15;48.70;98826.47;4882679;28;103596;-92
2021/06/07 08:32:08;;;;;;;;;1.00;1.00;;;;;21.16;48.91;98832.81;4916105;28;105347;-91
2021/06/07 08:34:35;;;;;;;;;0.33;0.33;;;;;21.17;48.66;98829.75;4904638;28;103004;-92
2021/06/07 08:37:02;;;;;;;;;2.00;1.00;;;;;21.17;49.34;98818.75;4901907;28;104353;-92
2021/06/07 08:39:30;;;;;;;;;2.00;1.00;;;;;21.18;48.82;98828.69;4888167;28;103315;-91
2021/06/07 08:41:57;;;;;;;;;2.33;1.67;;;;;21.17;49.04;98820.69;4874120;28;102215;-92
2021/06/07 08:44:25;;;;;;;;;3.00;3.00;;;;;21.18;48.94;98825.09;4900661;28;104087;-92
2021/06/07 08:46:52;;;;;;;;;0.33;0.33;;;;;21.19;48.87;98822.09;4910396;28;104160;-91
2021/06/07 08:49:19;;;;;;;;;0.00;0.00;;;;;21.19;49.10;98829.50;4900567;28;103353;-91
2021/06/07 08:51:46;;;;;;;;;1.00;1.00;;;;;21.19;49.18;98829.50;4906951;28;102091;-92
2021/06/07 08:54:14;;;;;;;;;0.67;0.67;;;;;21.19;49.19;98824.84;4914395;28;104444;-92
2021/06/07 08:56:43;;;;;;;;;1.00;1.00;;;;;21.12;48.75;98815.13;4876149;28;104055;-91
2021/06/07 08:59:11;;;;;;;;;2.00;1.00;;;;;21.21;48.62;98833.63;4888633;28;102199;-92
2021/06/07 09:01:39;;;;;;;;;1.00;1.00;;;;;21.22;49.22;98820.72;4888522;28;103478;-91
2021/06/07 09:04:18;;;;;;;;;2.00;1.00;;;;;21.23;49.13;98825.97;4887656;28;102765;-92
2021/06/07 09:06:46;;;;;;;;;0.33;0.33;;;;;21.23;48.70;98816.88;4911226;28;104491;-92
2021/06/07 09:09:15;;;;;;;;;2.00;1.00;;;;;21.24;48.58;98813.88;4898335;28;104106;-92
2021/06/07 09:11:57;;;;;;;;;1.00;1.00;;;;;21.26;48.49;98816.34;4891483;28;103134;-91
2021/06/07 09:14:26;;;;;;;;;1.67;1.67;;;;;21.26;48.84;98819.09;4895274;28;104070;-91
2021/06/07 09:16:53;;;;;;;;;1.00;1.00;;;;;21.27;48.80;98818.84;4914197;28;104060;-92
2021/06/07 09:19:26;;;;;;;;;2.00;2.00;;;;;21.28;49.02;98831.50;4910443;28;102191;-91
2021/06/07 09:21:55;;;;;;;;;1.00;1.00;;;;;21.30;48.49;98820.22;4909284;28;103448;-91
2021/06/07 09:24:22;;;;;;;;;1.00;1.00;;;;;21.29;48.80;98824.91;4895268;28;102620;-92
2021/06/07 09:26:50;;;;;;;;;2.00;1.00;;;;;21.31;48.42;98824.63;4894500;28;103746;-91
2021/06/07 09:29:20;;;;;;;;;0.00;0.00;;;;;21.32;48.73;98818.88;4891252;28;102548;-92
2021/06/07 09:31:54;;;;;;;;;1.00;1.00;;;;;21.34;48.72;98813.91;4905660;28;101993;-92
2021/06/07 09:34:40;;;;;;;;;1.00;1.00;;;;;21.34;48.10;98815.88;4906906;28;102257;-91
2021/06/07 09:37:08;;;;;;;;;1.00;1.00;;;;;21.35;48.52;98806.50;4903292;28;109353;-91
2021/06/07 09:39:36;;;;;;;;;1.00;1.00;;;;;21.35;48.91;98815.59;4900696;28;102579;-91
2021/06/07 09:42:08;;;;;;;;;1.00;1.00;;;;;21.36;48.36;98811.75;4900486;28;102201;-92
2021/06/07 09:44:42;;;;;;;;;1.00;1.00;;;;;21.37;48.74;98807.09;4903200;28;102666;-90
2021/06/07 09:47:20;;;;;;;;;1.00;1.00;;;;;21.39;48.91;98810.38;4886559;28;104456;-91
2021/06/07 09:50:04;;;;;;;;;0.00;0.00;;;;;21.39;48.43;98801.31;4904689;28;102667;-91
2021/06/07 09:52:44;;;;;;;;;0.33;0.33;;;;;21.41;48.44;98802.69;4904203;28;102251;-93
2021/06/07 09:55:17;;;;;;;;;1.00;1.00;;;;;21.42;48.25;98800.78;4843256;28;102810;-91
2021/06/07 09:57:53;;;;;;;;;1.00;1.00;;;;;21.42;48.74;98792.53;4910816;28;104272;-91
2021/06/07 10:00:43;;;;;;;;;1.33;1.33;;;;;21.42;48.37;98790.59;4916164;28;104406;-92
2021/06/07 10:03:31;;;;;;;;;1.67;1.67;;;;;21.41;48.78;98791.69;4847482;28;102376;-91
2021/06/07 10:06:17;;;;;;;;;1.00;1.00;;;;;21.43;48.38;98784.00;4903137;28;102659;-92
2021/06/07 10:08:46;;;;;;;;;3.00;1.00;;;;;21.44;48.44;98796.66;4821906;28;108935;-92
2021/06/07 10:11:17;;;;;;;;;1.00;1.00;;;;;21.45;48.68;98798.31;4879655;28;102595;-92
2021/06/07 10:13:44;;;;;;;;;1.00;1.00;;;;;21.45;48.42;98791.97;4900569;28;102141;-92
2021/06/07 10:16:11;;;;;;;;;1.00;1.00;;;;;21.45;48.70;98786.47;4879700;28;102681;-92
2021/06/07 10:18:40;;;;;;;;;1.00;1.00;;;;;21.44;48.29;98780.16;4902826;28;104201;-92
2021/06/07 10:21:09;;;;;;;;;2.00;1.00;;;;;21.46;48.53;98788.97;4878695;28;102349;-92
2021/06/07 10:23:37;;;;;;;;;0.00;0.00;;;;;21.47;48.43;98796.16;4902967;28;103469;-92
2021/06/07 10:26:05;;;;;;;;;1.00;1.00;;;;;21.48;48.52;98785.97;4876062;28;105603;-92
2021/06/07 10:28:35;;;;;;;;;0.00;0.00;;;;;21.47;48.50;98793.38;4900767;28;109002;-92
2021/06/07 10:31:12;;;;;;;;;1.00;1.00;;;;;21.48;48.20;98785.97;4908519;28;104592;-92
2021/06/07 10:33:40;;;;;;;;;1.00;1.00;;;;;21.48;48.56;98784.00;4899076;28;102310;-91
2021/06/07 10:36:22;;;;;;;;;1.00;1.00;;;;;21.50;48.71;98779.09;4908165;28;102460;-92
2021/06/07 10:38:50;;;;;;;;;0.33;0.33;;;;;21.51;48.63;98790.94;4899308;28;103825;-92
2021/06/07 10:41:25;;;;;;;;;0.00;0.00;;;;;21.51;48.20;98788.19;4888750;28;102303;-91
2021/06/07 10:43:56;;;;;;;;;2.00;1.00;;;;;21.52;48.45;98781.59;4910791;28;102598;-92
2021/06/07 10:46:30;;;;;;;;;1.00;1.00;;;;;21.53;48.06;98777.72;4907572;28;102331;-92
2021/06/07 10:48:58;;;;;;;;;1.00;1.00;;;;;21.54;48.11;98777.47;4901973;28;104427;-92
2021/06/07 10:51:27;;;;;;;;;1.00;1.00;;;;;21.53;48.35;98762.03;4917540;28;104169;-92
2021/06/07 10:54:12;;;;;;;;;1.00;1.00;;;;;21.58;48.42;98777.75;4914948;28;102504;-92
2021/06/07 10:56:40;;;;;;;;;0.67;0.67;;;;;21.58;48.35;98775.00;4894845;28;103002;-92
2021/06/07 10:59:13;;;;;;;;;0.00;0.00;;;;;21.58;48.43;98770.31;4888645;28;104307;-92
2021/06/07 11:01:49;;;;;;;;;1.00;1.00;;;;;21.59;48.45;98776.66;4918513;28;102646;-92
2021/06/07 11:04:33;;;;;;;;;0.00;0.00;;;;;21.58;48.07;98766.72;4904397;28;102189;-92
2021/06/07 11:07:10;;;;;;;;;1.33;1.00;;;;;21.59;48.42;98771.16;4891085;28;102759;-92
2021/06/07 11:10:19;;;;;;;;;0.00;0.00;;;;;21.61;48.47;98763.47;4893113;28;109658;-92
2021/06/07 11:12:57;;;;;;;;;1.00;1.00;;;;;21.63;48.22;98761.25;4844655;28;102628;-92
2021/06/07 11:15:35;;;;;;;;;0.67;0.67;;;;;21.64;48.21;98762.91;4912366;28;102205;-92
2021/06/07 11:18:21;;;;;;;;;0.00;0.00;;;;;21.63;48.04;98767.59;4902035;28;102253;-92
2021/06/07 11:20:50;;;;;;;;;0.00;0.00;;;;;21.63;48.05;98767.59;4846322;28;108710;-92
2021/06/07 11:23:19;;;;;;;;;1.00;1.00;;;;;21.63;48.43;98766.75;4899157;28;102737;-91
2021/06/07 11:25:53;;;;;;;;;0.67;0.67;;;;;21.66;48.03;98760.72;4891276;28;102555;-93
2021/06/07 11:28:30;;;;;;;;;0.00;0.00;;;;;21.65;48.16;98748.91;4891569;28;102425;-93
2021/06/07 11:30:58;;;;;;;;;0.33;0.33;;;;;21.66;48.35;98755.22;4910726;28;104683;-92
2021/06/07 11:33:25;;;;;;;;;0.00;0.00;;;;;21.65;48.43;98748.06;4912080;28;102452;-92
2021/06/07 11:35:53;;;;;;;;;0.00;0.00;;;;;21.65;48.07;98754.41;4913157;28;106977;-91
2021/06/07 11:38:33;;;;;;;;;1.00;1.00;;;;;21.67;48.38;98741.19;4914305;28;103671;-92
2021/06/07 11:41:02;;;;;;;;;0.67;0.67;;;;;21.68;48.63;98748.34;4909259;28;104031;-93
2021/06/07 11:43:51;;;;;;;;;0.33;0.33;;;;;21.69;48.14;98751.94;4909323;28;102687;-92
2021/06/07 11:46:31;;;;;;;;;0.33;0.33;;;;;21.70;48.20;98745.34;4850806;28;102478;-92